首页
METAR-TAF:

METAR-TAF

机场 :

巴塞尔-米卢斯-弗赖堡欧洲机场

巴塞尔-米卢斯-弗赖堡欧洲机场, 法国

纬度: 47-36N, 经度: 007-31E, 海拔: 270米

当前天气观测

该预报发布于29分钟前的09:30 UTC
风速7节,风向东转东南
温度 7°C
湿度 81%
气压 1008 hPa
能见度10公里或以上
1500米以下无云,无积雨云

METAR: LFSB 220930Z 12007KT CAVOK 07/04 Q1008 NOSIG

时间: 10:59 (09:59 UTC)

预报

该预报发布于3小时和41分钟前的06:18 UTC
预报有效从22日的 06点(UTC)到 23日的 06点(UTC)
风速7节,风向南转南东
能見度: 8000
成为
从 22日的 16点(UTC)到 22日的 18点(UTC)
风速6节,风向北转西北
能見度: 3000
多云层高于200英尺
轻雾
短暂存在
从 22日的 18点(UTC)到 23日的 06点(UTC)
能見度: 0500

TAF: LFSB 220618Z 2206/2306 15007KT 8000 NSC BECMG 2216/2218 34006KT 3000 BR BKN002 TEMPO 2218/2306 0500 FG VV///

超过4000个机场的气象观测和天气预报(METAR&TAF报告)。

可查询的气象台以黄色和红色小点在地图上表示。

将鼠标移到小点上方,可查看气象台名称。

然后点击查看天气观测和预报。

如需切换地图:点击带黑十字的绿色按钮放大地图;点击带横线的绿色按钮缩小地图;或者点击绿色箭头查看邻近地区的地图。


METAR-TAF: